Time;durP1;ratioP1;P1;durP2;ratioP2;P2;SDS_P1;SDS_P2;PMS_P1;PMS_P2;Temp;Humidity;BMP_temperature;BMP_pressure;BME280_temperature;BME280_humidity;BME280_pressure;Samples;Min_cycle;Max_cycle;Signal;HPM_P1;HPM_P2
2021/01/14 00:00:25;;;;;;;28.88;15.65;;;;;;;1.96;100.00;101184.31;4991427;28;20429;-49
2021/01/14 00:02:52;;;;;;;28.75;15.85;;;;;;;1.95;100.00;101169.44;4991369;28;20051;-50
2021/01/14 00:05:19;;;;;;;28.83;14.40;;;;;;;2.06;100.00;101171.41;4987384;28;20042;-53
2021/01/14 00:07:49;;;;;;;26.73;14.60;;;;;;;2.12;100.00;101170.16;4990666;28;20406;-50
2021/01/14 00:10:17;;;;;;;25.42;13.85;;;;;;;2.11;100.00;101169.28;4989321;28;20307;-50
2021/01/14 00:12:44;;;;;;;32.67;16.13;;;;;;;1.99;100.00;101168.31;4993193;28;20039;-51
2021/01/14 00:15:13;;;;;;;35.28;15.82;;;;;;;1.97;100.00;101170.22;4984046;28;20061;-51
2021/01/14 00:17:41;;;;;;;29.52;14.50;;;;;;;2.09;100.00;101162.47;4991687;28;20038;-53
2021/01/14 00:20:10;;;;;;;31.05;15.15;;;;;;;2.10;100.00;101158.84;4990234;28;20065;-52
2021/01/14 00:22:37;;;;;;;28.27;14.40;;;;;;;2.02;100.00;101154.94;4987170;28;20045;-53
2021/01/14 00:25:05;;;;;;;26.70;14.68;;;;;;;1.99;100.00;101152.50;4988044;28;20034;-52
2021/01/14 00:27:32;;;;;;;35.15;16.63;;;;;;;1.94;100.00;101154.56;4986830;28;20035;-54
2021/01/14 00:29:59;;;;;;;29.70;15.95;;;;;;;2.05;100.00;101149.44;4989488;28;20326;-53
2021/01/14 00:32:26;;;;;;;32.53;16.52;;;;;;;1.99;100.00;101157.75;4989348;28;20042;-53
2021/01/14 00:34:54;;;;;;;37.70;18.52;;;;;;;1.96;100.00;101163.25;4992595;28;20034;-51
2021/01/14 00:40:09;;;;;;;38.83;18.52;;;;;;;1.93;100.00;101152.91;4982717;28;20692;-52
2021/01/14 00:42:35;;;;;;;41.58;18.70;;;;;;;1.95;100.00;101158.91;4984615;28;20562;-54
2021/01/14 00:45:04;;;;;;;38.08;18.20;;;;;;;1.95;100.00;101176.50;4988451;28;20049;-54
2021/01/14 00:47:34;;;;;;;37.97;18.20;;;;;;;1.99;100.00;101164.84;4989834;28;20100;-54
2021/01/14 00:50:02;;;;;;;37.78;17.92;;;;;;;2.13;100.00;101153.41;4982819;28;20050;-52
2021/01/14 00:52:29;;;;;;;44.83;19.58;;;;;;;2.06;100.00;101143.25;4990970;28;20058;-50
2021/01/14 00:54:56;;;;;;;35.50;18.10;;;;;;;2.18;100.00;101136.34;4985023;28;20039;-51
2021/01/14 00:57:23;;;;;;;46.25;19.40;;;;;;;2.05;100.00;101146.81;4991356;28;20069;-52
2021/01/14 00:59:50;;;;;;;41.42;19.13;;;;;;;1.97;100.00;101146.50;4993098;28;20435;-50
2021/01/14 01:02:16;;;;;;;38.22;17.60;;;;;;;1.99;100.00;101154.31;4990993;28;20038;-52
2021/01/14 01:04:43;;;;;;;39.63;17.65;;;;;;;1.96;100.00;101150.06;4988908;28;20308;-54
2021/01/14 01:07:12;;;;;;;42.58;19.50;;;;;;;1.93;100.00;101155.53;4988337;28;20145;-53
2021/01/14 01:09:39;;;;;;;40.63;19.45;;;;;;;1.92;100.00;101153.84;4995158;28;20038;-53
2021/01/14 01:12:06;;;;;;;36.85;18.63;;;;;;;1.93;100.00;101157.31;4989471;28;20062;-53
2021/01/14 01:14:33;;;;;;;42.47;19.15;;;;;;;1.94;100.00;101159.00;4991364;28;20050;-55
2021/01/14 01:17:00;;;;;;;36.28;16.08;;;;;;;1.96;100.00;101157.97;4988452;28;20430;-52
2021/01/14 01:19:27;;;;;;;50.30;20.88;;;;;;;1.94;100.00;101162.47;4988687;28;20035;-54
2021/01/14 01:21:54;;;;;;;41.25;18.83;;;;;;;1.92;100.00;101158.28;4983670;28;20319;-53
2021/01/14 01:24:23;;;;;;;42.75;19.58;;;;;;;1.92;100.00;101156.47;4981464;28;20049;-54
2021/01/14 01:26:51;;;;;;;37.75;17.33;;;;;;;1.93;100.00;101160.81;4986688;28;20457;-53
2021/01/14 01:29:21;;;;;;;48.95;18.73;;;;;;;1.93;100.00;101160.81;4990384;28;20057;-52
2021/01/14 01:31:48;;;;;;;38.75;19.05;;;;;;;1.92;100.00;101167.00;4987011;28;20049;-51
2021/01/14 01:34:15;;;;;;;34.30;15.88;;;;;;;1.97;100.00;101157.03;4986991;28;20035;-54
2021/01/14 01:36:43;;;;;;;39.10;17.42;;;;;;;1.91;100.00;101162.69;4984008;28;20046;-54
2021/01/14 01:39:09;;;;;;;38.67;18.58;;;;;;;1.98;100.00;101160.50;4984733;28;20061;-54
2021/01/14 01:41:37;;;;;;;36.03;18.75;;;;;;;1.93;100.00;101155.53;4990085;28;20039;-51
2021/01/14 01:44:05;;;;;;;44.83;21.00;;;;;;;1.91;100.00;101167.94;4986291;28;20050;-50
2021/01/14 01:46:32;;;;;;;55.42;23.23;;;;;;;1.94;100.00;101166.91;4993340;28;20126;-53
2021/01/14 01:49:00;;;;;;;49.30;23.73;;;;;;;1.94;100.00;101177.44;4987147;28;20042;-54
2021/01/14 01:51:31;;;;;;;48.85;23.58;;;;;;;1.92;100.00;101182.81;4986419;28;20061;-54
2021/01/14 01:53:58;;;;;;;58.53;22.92;;;;;;;1.92;100.00;101187.25;4993083;28;20057;-54
2021/01/14 01:56:26;;;;;;;52.58;23.83;;;;;;;1.92;100.00;101201.25;4987399;28;20043;-53
2021/01/14 01:58:57;;;;;;;56.80;23.65;;;;;;;1.92;100.00;101197.78;4990550;28;20054;-53
2021/01/14 02:01:25;;;;;;;47.97;22.02;;;;;;;1.92;100.00;101201.25;4988986;28;20099;-54
2021/01/14 02:03:52;;;;;;;51.03;24.50;;;;;;;1.93;100.00;101195.06;4990184;28;20049;-53
2021/01/14 02:06:19;;;;;;;52.83;22.90;;;;;;;1.94;100.00;101191.44;4989260;28;20038;-53
2021/01/14 02:08:49;;;;;;;60.22;23.80;;;;;;;1.94;100.00;101180.09;4983504;28;20035;-53
2021/01/14 02:11:22;;;;;;;65.53;24.33;;;;;;;1.92;100.00;101181.97;4984472;28;20046;-53
2021/01/14 02:14:03;;;;;;;55.47;23.73;;;;;;;1.89;100.00;101183.84;4987435;28;20050;-50
2021/01/14 02:16:30;;;;;;;54.55;23.52;;;;;;;1.92;100.00;101185.44;4985392;28;20347;-55
2021/01/14 02:18:58;;;;;;;53.60;23.08;;;;;;;1.89;100.00;101173.31;4986355;28;20065;-51
2021/01/14 02:21:26;;;;;;;48.65;20.77;;;;;;;1.95;100.00;101176.50;4986774;28;20441;-53
2021/01/14 02:23:59;;;;;;;67.55;27.00;;;;;;;1.93;100.00;101179.25;4986422;28;20050;-54
2021/01/14 02:26:27;;;;;;;93.90;30.73;;;;;;;1.92;100.00;101172.28;4995254;28;20057;-53
2021/01/14 02:28:55;;;;;;;50.20;23.13;;;;;;;1.93;100.00;101173.97;4991513;28;20057;-51
2021/01/14 02:31:23;;;;;;;45.65;19.83;;;;;;;1.99;100.00;101170.94;4989458;28;20042;-54
2021/01/14 02:33:52;;;;;;;40.10;19.38;;;;;;;2.14;100.00;101170.88;4985942;28;20086;-54
2021/01/14 02:36:20;;;;;;;41.42;19.27;;;;;;;2.16;100.00;101171.66;4988314;28;20057;-52
2021/01/14 02:38:47;;;;;;;37.95;19.65;;;;;;;2.21;100.00;101172.19;4988898;28;20046;-54
2021/01/14 02:41:13;;;;;;;45.65;18.15;;;;;;;2.23;100.00;101176.41;4989631;28;20053;-53
2021/01/14 02:43:42;;;;;;;39.42;18.98;;;;;;;2.24;100.00;101172.84;4992929;28;20046;-53
2021/01/14 02:46:10;;;;;;;39.38;17.63;;;;;;;2.20;100.00;101170.50;4980914;28;20041;-53
2021/01/14 02:48:40;;;;;;;40.10;19.17;;;;;;;2.11;100.00;101168.47;4980746;28;20076;-53
2021/01/14 02:51:12;;;;;;;36.50;18.60;;;;;;;2.17;100.00;101162.78;4984637;28;20045;-54
2021/01/14 02:53:41;;;;;;;52.78;21.38;;;;;;;2.15;100.00;101164.69;4989102;28;20046;-50
2021/01/14 02:56:09;;;;;;;35.30;17.60;;;;;;;2.16;100.00;101158.47;4981802;28;20046;-53
2021/01/14 02:58:36;;;;;;;32.55;16.98;;;;;;;2.19;100.00;101163.53;4989572;28;20157;-50
2021/01/14 03:01:04;;;;;;;35.83;16.67;;;;;;;2.09;100.00;101159.81;4991196;28;20046;-52
2021/01/14 03:03:31;;;;;;;26.77;14.65;;;;;;;2.14;100.00;101171.75;4984026;28;20342;-52
2021/01/14 03:05:58;;;;;;;36.10;16.80;;;;;;;2.09;100.00;101167.72;4985698;28;20452;-48
2021/01/14 03:08:27;;;;;;;30.40;14.65;;;;;;;2.10;100.00;101154.44;4987074;28;20073;-53
2021/01/14 03:10:54;;;;;;;34.75;17.20;;;;;;;2.05;100.00;101161.78;4992006;28;20046;-52
2021/01/14 03:13:21;;;;;;;31.98;16.88;;;;;;;2.03;100.00;101146.09;4982335;28;20493;-53
2021/01/14 03:15:48;;;;;;;30.25;15.80;;;;;;;2.10;100.00;101153.59;4988193;28;20057;-51
2021/01/14 03:18:15;;;;;;;29.17;15.57;;;;;;;2.01;100.00;101145.34;4993433;28;20461;-53
2021/01/14 03:20:42;;;;;;;34.88;16.52;;;;;;;1.94;100.00;101141.41;4985103;28;20038;-52
2021/01/14 03:23:10;;;;;;;42.47;19.70;;;;;;;1.93;100.00;101147.63;4983133;28;20069;-55
2021/01/14 03:25:37;;;;;;;39.03;18.60;;;;;;;1.96;100.00;101150.06;4983695;28;20070;-51
2021/01/14 03:28:04;;;;;;;31.17;15.43;;;;;;;2.03;100.00;101154.00;4984532;28;20035;-53
2021/01/14 03:30:31;;;;;;;28.92;16.90;;;;;;;2.00;100.00;101155.97;4983945;28;20039;-53
2021/01/14 03:32:58;;;;;;;33.75;15.85;;;;;;;2.15;100.00;101164.69;4981462;28;20450;-52
2021/01/14 03:35:25;;;;;;;26.98;14.65;;;;;;;2.19;100.00;101166.16;4984535;28;20042;-54
2021/01/14 03:37:52;;;;;;;34.08;15.48;;;;;;;2.06;100.00;101169.59;4984018;28;20130;-52
2021/01/14 03:40:22;;;;;;;26.75;13.50;;;;;;;2.12;100.00;101168.34;4987550;28;20050;-53
2021/01/14 03:42:48;;;;;;;24.80;12.73;;;;;;;2.19;100.00;101176.72;4990143;28;20038;-51
2021/01/14 03:45:16;;;;;;;26.08;14.90;;;;;;;2.17;100.00;101175.94;4987172;28;20069;-53
2021/01/14 03:47:43;;;;;;;25.73;14.15;;;;;;;2.15;100.00;101188.41;4989156;28;20065;-50
2021/01/14 03:50:11;;;;;;;29.40;14.75;;;;;;;2.01;100.00;101176.97;4991553;28;20821;-52
2021/01/14 03:52:38;;;;;;;25.50;14.25;;;;;;;2.12;100.00;101183.34;4983175;28;20290;-53
2021/01/14 03:55:06;;;;;;;33.10;15.60;;;;;;;2.05;100.00;101182.88;4987403;28;20046;-50
2021/01/14 03:57:36;;;;;;;28.63;16.02;;;;;;;2.11;100.00;101176.34;4985536;28;20370;-53
2021/01/14 04:00:05;;;;;;;29.02;14.60;;;;;;;2.08;100.00;101177.41;4988012;28;20125;-52
2021/01/14 04:02:32;;;;;;;29.90;13.98;;;;;;;2.08;100.00;101176.56;4990505;28;20065;-51
2021/01/14 04:04:59;;;;;;;24.98;13.65;;;;;;;2.09;100.00;101180.91;4985048;28;20042;-51
2021/01/14 04:07:26;;;;;;;21.35;12.70;;;;;;;2.08;100.00;101172.13;4991357;28;20061;-51
2021/01/14 04:09:54;;;;;;;24.77;12.45;;;;;;;2.05;100.00;101180.25;4989659;28;20038;-50
2021/01/14 04:12:30;;;;;;;22.90;11.82;;;;;;;2.03;100.00;101177.69;4989806;28;20316;-52
2021/01/14 04:14:58;;;;;;;21.52;12.98;;;;;;;2.10;100.00;101174.66;4987629;28;20049;-52
2021/01/14 04:17:25;;;;;;;26.42;13.15;;;;;;;2.03;100.00;101177.69;4995186;28;20081;-51
2021/01/14 04:19:52;;;;;;;20.23;11.35;;;;;;;1.99;100.00;101173.56;4989182;28;20069;-49
2021/01/14 04:22:19;;;;;;;20.88;11.93;;;;;;;1.99;100.00;101170.94;4990251;28;20050;-50
2021/01/14 04:24:46;;;;;;;21.35;10.57;;;;;;;1.96;100.00;101165.88;4987849;28;20050;-51
2021/01/14 04:27:16;;;;;;;18.27;8.90;;;;;;;1.87;100.00;101172.59;4986745;28;20133;-53
2021/01/14 04:29:43;;;;;;;20.25;8.63;;;;;;;1.81;100.00;101169.50;4993596;28;20053;-52
2021/01/14 04:32:10;;;;;;;14.18;8.20;;;;;;;1.84;100.00;101162.25;4981147;28;20379;-52
2021/01/14 04:34:37;;;;;;;19.13;8.35;;;;;;;1.90;100.00;101161.00;4986738;28;20089;-51
2021/01/14 04:37:06;;;;;;;10.95;6.25;;;;;;;1.88;100.00;101161.09;4983375;28;20061;-49
2021/01/14 04:39:33;;;;;;;13.43;6.30;;;;;;;1.83;100.00;101157.06;4990224;28;20042;-51
2021/01/14 04:42:01;;;;;;;14.80;7.75;;;;;;;1.77;100.00;101152.19;4988104;28;20069;-52
2021/01/14 04:44:29;;;;;;;14.00;8.20;;;;;;;1.79;100.00;101145.06;4990651;28;20043;-52
2021/01/14 04:47:03;;;;;;;16.88;7.70;;;;;;;1.88;100.00;101160.25;4990845;28;20042;-50
2021/01/14 04:49:30;;;;;;;19.73;7.60;;;;;;;1.79;100.00;101158.22;4988508;28;20050;-52
2021/01/14 04:52:03;;;;;;;18.92;8.40;;;;;;;1.75;100.00;101157.56;4990359;28;20465;-50
2021/01/14 04:54:33;;;;;;;18.08;8.55;;;;;;;1.79;100.00;101150.31;4986117;28;20054;-52
2021/01/14 04:57:04;;;;;;;15.52;7.78;;;;;;;1.73;100.00;101151.56;4989206;28;20030;-52
2021/01/14 04:59:37;;;;;;;12.73;7.30;;;;;;;1.67;100.00;101158.06;4988633;28;20114;-52
2021/01/14 05:02:06;;;;;;;17.00;7.75;;;;;;;1.67;100.00;101159.81;4988342;28;20050;-53
2021/01/14 05:04:35;;;;;;;12.75;7.70;;;;;;;1.71;100.00;101159.53;4988283;28;20057;-49
2021/01/14 05:07:05;;;;;;;16.80;8.52;;;;;;;1.80;100.00;101165.16;4990798;28;20049;-54
2021/01/14 05:09:33;;;;;;;12.85;5.45;;;;;;;1.68;100.00;101170.25;4993118;28;20054;-49
2021/01/14 05:12:06;;;;;;;7.28;4.15;;;;;;;1.75;100.00;101175.16;4982793;28;20034;-53
2021/01/14 05:14:34;;;;;;;10.23;5.10;;;;;;;1.85;100.00;101165.72;4987581;28;20050;-53
2021/01/14 05:17:02;;;;;;;10.65;3.95;;;;;;;1.77;100.00;101173.25;4988856;28;20057;-52
2021/01/14 05:19:29;;;;;;;8.98;3.83;;;;;;;1.72;100.00;101163.84;4984414;28;20331;-51
2021/01/14 05:21:59;;;;;;;7.85;3.75;;;;;;;1.61;100.00;101161.06;4988325;28;20042;-49
2021/01/14 05:24:26;;;;;;;6.68;3.20;;;;;;;1.59;100.00;101164.72;4986158;28;20310;-51
2021/01/14 05:26:53;;;;;;;8.25;3.67;;;;;;;1.85;100.00;101160.44;4994941;28;20406;-51
2021/01/14 05:29:20;;;;;;;7.20;3.42;;;;;;;1.60;100.00;101163.78;4988685;28;20125;-51
2021/01/14 05:31:50;;;;;;;8.52;3.78;;;;;;;1.51;100.00;101167.84;4979402;28;20054;-48
2021/01/14 05:34:21;;;;;;;7.70;3.35;;;;;;;1.52;100.00;101165.13;4977240;28;20081;-52
2021/01/14 05:36:55;;;;;;;8.85;3.25;;;;;;;1.54;100.00;101163.22;4984186;28;20042;-50
2021/01/14 05:39:24;;;;;;;13.37;3.93;;;;;;;1.70;100.00;101162.25;4988947;28;20042;-50
2021/01/14 05:41:51;;;;;;;6.88;3.88;;;;;;;1.84;100.00;101158.75;4983286;28;20142;-49
2021/01/14 05:44:19;;;;;;;6.88;3.60;;;;;;;1.81;100.00;101156.31;4984198;28;20057;-51
2021/01/14 05:46:49;;;;;;;8.90;4.43;;;;;;;1.72;100.00;101163.84;4985415;28;20050;-49
2021/01/14 05:49:17;;;;;;;6.80;3.70;;;;;;;1.79;100.00;101161.69;4989512;28;20515;-53
2021/01/14 05:51:53;;;;;;;10.32;7.63;;;;;;;1.65;100.00;101154.66;4989472;28;20043;-51
2021/01/14 05:54:30;;;;;;;12.18;4.88;;;;;;;1.65;100.00;101154.66;4986719;28;20042;-53
2021/01/14 05:57:00;;;;;;;11.25;4.70;;;;;;;1.61;100.00;101155.78;4985199;28;20045;-53
2021/01/14 05:59:33;;;;;;;8.77;4.38;;;;;;;1.58;100.00;101152.53;4989729;28;20091;-50
2021/01/14 06:02:01;;;;;;;9.85;4.97;;;;;;;1.55;100.00;101149.13;4988892;28;20058;-51
2021/01/14 06:04:30;;;;;;;11.90;5.47;;;;;;;1.61;100.00;101158.41;4992272;28;20073;-53
2021/01/14 06:07:02;;;;;;;11.95;7.22;;;;;;;1.64;100.00;101160.84;4990637;28;20162;-52
2021/01/14 06:09:29;;;;;;;13.93;7.82;;;;;;;1.66;100.00;101159.00;4986644;28;20285;-54
2021/01/14 06:12:07;;;;;;;15.25;7.47;;;;;;;1.66;100.00;101152.84;4995421;28;20042;-51
2021/01/14 06:14:35;;;;;;;13.20;6.72;;;;;;;1.70;100.00;101152.59;4985650;28;20357;-49
2021/01/14 06:17:03;;;;;;;11.13;6.88;;;;;;;1.66;100.00;101159.00;4991857;28;20038;-47
2021/01/14 06:19:32;;;;;;;15.25;7.35;;;;;;;1.66;100.00;101161.63;4979995;28;20043;-52
2021/01/14 06:22:00;;;;;;;11.43;6.13;;;;;;;1.62;100.00;101157.50;4988231;28;20046;-47
2021/01/14 06:24:28;;;;;;;14.35;6.95;;;;;;;1.78;100.00;101151.25;4983409;28;20046;-48
2021/01/14 06:26:57;;;;;;;11.38;5.63;;;;;;;1.74;100.00;101158.50;4977375;28;20049;-49
2021/01/14 06:29:26;;;;;;;12.60;5.75;;;;;;;1.71;100.00;101159.53;4989043;28;20094;-52
2021/01/14 06:32:08;;;;;;;14.07;5.50;;;;;;;1.62;100.00;101161.91;4982703;28;20049;-50
2021/01/14 06:34:38;;;;;;;11.80;7.40;;;;;;;1.52;100.00;101159.84;4983954;28;20050;-52
2021/01/14 06:37:07;;;;;;;10.82;5.85;;;;;;;1.59;100.00;101160.31;4977431;28;20061;-51
2021/01/14 06:39:38;;;;;;;12.77;6.30;;;;;;;1.59;100.00;101162.94;4983527;28;20046;-51
2021/01/14 06:42:16;;;;;;;15.00;6.20;;;;;;;1.60;100.00;101162.00;4986428;28;20057;-48
2021/01/14 06:44:49;;;;;;;13.20;6.57;;;;;;;1.55;100.00;101157.03;4970159;28;20066;-48
2021/01/14 06:47:29;;;;;;;12.63;6.47;;;;;;;1.44;100.00;101159.47;4981818;28;20042;-48
2021/01/14 06:50:17;;;;;;;19.75;6.45;;;;;;;1.37;100.00;101155.53;4986741;28;20043;-48
2021/01/14 06:52:46;;;;;;;9.95;4.93;;;;;;;1.28;100.00;101150.88;4979816;28;20073;-48
2021/01/14 06:55:14;;;;;;;15.60;5.93;;;;;;;1.33;100.00;101162.78;4989268;28;20042;-47
2021/01/14 06:57:45;;;;;;;10.85;5.47;;;;;;;1.28;100.00;101164.84;4980690;28;20050;-47
2021/01/14 07:00:17;;;;;;;11.27;5.35;;;;;;;1.25;100.00;101161.56;4982625;28;20043;-48
2021/01/14 07:02:54;;;;;;;11.50;5.90;;;;;;;0.88;100.00;101163.78;4986099;28;20046;-49
2021/01/14 07:05:38;;;;;;;14.65;7.32;;;;;;;0.68;100.00;101165.81;4987187;28;20048;-50
2021/01/14 07:08:31;;;;;;;13.68;6.78;;;;;;;0.53;100.00;101164.13;4992693;28;20043;-48
2021/01/14 07:11:07;;;;;;;12.52;7.13;;;;;;;0.34;100.00;101163.38;4984796;28;20062;-49
2021/01/14 07:13:36;;;;;;;11.55;5.97;;;;;;;0.23;100.00;101159.66;4986103;28;20206;-54
2021/01/14 07:16:05;;;;;;;13.07;6.15;;;;;;;0.12;100.00;101155.03;4987324;28;20331;-56
2021/01/14 07:18:33;;;;;;;14.77;7.78;;;;;;;0.03;100.00;101156.41;4991479;28;20427;-55
2021/01/14 07:21:11;;;;;;;13.93;6.07;;;;;;;-0.03;100.00;101162.00;4987942;28;20034;-54
2021/01/14 07:23:46;;;;;;;12.02;6.07;;;;;;;-0.08;100.00;101162.25;4984049;28;20050;-55
2021/01/14 07:26:13;;;;;;;12.15;6.07;;;;;;;-0.15;100.00;101173.19;4980394;28;20058;-58
2021/01/14 07:28:41;;;;;;;14.90;7.68;;;;;;;-0.22;100.00;101172.69;4984227;28;20090;-59
2021/01/14 07:31:22;;;;;;;14.93;8.18;;;;;;;-0.26;100.00;101171.16;4982351;28;20047;-59
2021/01/14 07:33:52;;;;;;;16.80;7.75;;;;;;;-0.33;100.00;101175.06;4983580;28;20078;-60
2021/01/14 07:36:22;;;;;;;17.60;7.93;;;;;;;-0.35;100.00;101177.75;4991993;28;20335;-63
2021/01/14 07:38:50;;;;;;;15.27;7.90;;;;;;;-0.39;100.00;101184.09;4993459;28;20333;-63
2021/01/14 07:41:17;;;;;;;16.10;7.97;;;;;;;-0.41;100.00;101186.81;4988462;28;20061;-64
2021/01/14 07:43:48;;;;;;;19.92;9.23;;;;;;;-0.44;100.00;101192.25;4993424;28;20050;-67
2021/01/14 07:46:17;;;;;;;18.17;8.38;;;;;;;-0.44;100.00;101201.88;4989939;28;20042;-63
2021/01/14 07:48:44;;;;;;;17.63;8.85;;;;;;;-0.47;100.00;101202.03;4994154;28;20426;-65
2021/01/14 07:51:11;;;;;;;16.00;8.45;;;;;;;-0.47;100.00;101204.66;4990125;28;20053;-64
2021/01/14 07:53:39;;;;;;;17.35;8.60;;;;;;;-0.47;100.00;101209.91;5004164;28;20046;-63
2021/01/14 07:56:22;;;;;;;12.57;6.55;;;;;;;-0.45;100.00;101208.06;5006700;28;20050;-63
2021/01/14 07:58:49;;;;;;;16.48;8.05;;;;;;;-0.47;100.00;101200.25;5000313;28;20046;-62
2021/01/14 08:01:18;;;;;;;20.30;9.32;;;;;;;-0.47;100.00;101210.75;4999839;28;20046;-62
2021/01/14 08:03:45;;;;;;;21.08;10.02;;;;;;;-0.48;100.00;101203.81;5000083;28;20046;-62
2021/01/14 08:06:22;;;;;;;18.10;8.35;;;;;;;-0.50;100.00;101205.66;5000670;28;20050;-64
2021/01/14 08:08:57;;;;;;;20.00;9.25;;;;;;;-0.50;100.00;101210.09;4986381;28;20065;-63
2021/01/14 08:11:25;;;;;;;18.02;7.53;;;;;;;-0.52;100.00;101202.28;4990323;28;20038;-63
2021/01/14 08:14:13;;;;;;;18.63;7.75;;;;;;;-0.54;100.00;101205.00;4989206;28;20050;-64
2021/01/14 08:16:42;;;;;;;17.75;7.88;;;;;;;-0.53;100.00;101200.59;4984464;28;20047;-61
2021/01/14 08:19:30;;;;;;;18.08;7.95;;;;;;;-0.54;100.00;101199.75;4991781;28;20043;-61
2021/01/14 08:22:10;;;;;;;17.05;7.70;;;;;;;-0.53;100.00;101203.22;4974780;28;21075;-62
2021/01/14 08:24:45;;;;;;;18.52;8.45;;;;;;;-0.51;100.00;101204.00;4976553;28;20047;-62
2021/01/14 08:27:26;;;;;;;20.08;9.55;;;;;;;-0.49;100.00;101207.38;4989776;28;20039;-63
2021/01/14 08:29:58;;;;;;;21.73;9.60;;;;;;;-0.50;100.00;101200.41;4988702;28;20038;-63
2021/01/14 08:32:33;;;;;;;18.58;8.85;;;;;;;-0.48;100.00;101203.81;4991696;28;20042;-65
2021/01/14 08:35:23;;;;;;;22.05;10.48;;;;;;;-0.46;100.00;101207.19;4984311;28;20042;-65
2021/01/14 08:37:51;;;;;;;17.30;8.00;;;;;;;-0.44;100.00;101215.84;4986569;28;20038;-64
2021/01/14 08:40:25;;;;;;;20.67;10.15;;;;;;;-0.44;100.00;101210.59;4993936;28;20363;-64
2021/01/14 08:43:03;;;;;;;18.38;9.20;;;;;;;-0.42;100.00;101208.72;4995613;28;20338;-63
2021/01/14 08:45:33;;;;;;;18.60;8.57;;;;;;;-0.43;100.00;101206.19;4992566;28;20034;-63
2021/01/14 08:48:03;;;;;;;19.05;7.60;;;;;;;-0.40;100.00;101212.13;4999453;28;20169;-62
2021/01/14 08:50:46;;;;;;;16.35;6.93;;;;;;;-0.40;100.00;101211.28;4995508;28;20354;-62
2021/01/14 08:53:23;;;;;;;15.20;6.47;;;;;;;-0.42;100.00;101206.09;4998188;28;20053;-63
2021/01/14 08:55:56;;;;;;;16.38;7.05;;;;;;;-0.42;100.00;101207.91;4982799;28;20047;-63
2021/01/14 08:58:39;;;;;;;11.40;5.60;;;;;;;-0.43;100.00;101207.03;4991519;28;20512;-63
2021/01/14 09:01:07;;;;;;;15.18;7.50;;;;;;;-0.43;100.00;101212.28;4984621;28;20034;-63
2021/01/14 09:03:35;;;;;;;13.13;6.22;;;;;;;-0.45;100.00;101206.28;4989446;28;20046;-62
2021/01/14 09:06:02;;;;;;;13.73;6.03;;;;;;;-0.39;100.00;101211.19;4986152;28;20053;-62
2021/01/14 09:08:30;;;;;;;11.25;5.93;;;;;;;-0.43;100.00;101212.28;4990255;28;20038;-62
2021/01/14 09:10:59;;;;;;;11.00;5.57;;;;;;;-0.45;100.00;101211.53;4987820;28;20058;-63
2021/01/14 09:13:27;;;;;;;12.68;6.32;;;;;;;-0.43;100.00;101222.78;4986886;28;20085;-64
2021/01/14 09:15:55;;;;;;;13.25;6.05;;;;;;;-0.44;100.00;101226.34;4984528;28;20054;-63
2021/01/14 09:18:30;;;;;;;11.05;5.90;;;;;;;-0.45;100.00;101216.78;4986615;28;20051;-62
2021/01/14 09:20:57;;;;;;;9.68;3.50;;;;;;;-0.45;100.00;101205.44;4979652;28;20043;-61
2021/01/14 09:23:25;;;;;;;13.50;5.90;;;;;;;-0.44;100.00;101221.09;4986995;28;20042;-62
2021/01/14 09:25:54;;;;;;;9.38;5.43;;;;;;;-0.44;100.00;101218.47;4962990;28;20039;-62
2021/01/14 09:28:24;;;;;;;12.25;6.13;;;;;;;-0.44;100.00;101212.38;4989481;28;20394;-61
2021/01/14 09:30:56;;;;;;;10.63;5.43;;;;;;;-0.44;100.00;101213.22;4984546;28;20411;-60
2021/01/14 09:33:24;;;;;;;15.32;6.57;;;;;;;-0.42;100.00;101213.97;4992225;28;20046;-62
2021/01/14 09:36:10;;;;;;;14.98;5.38;;;;;;;-0.44;100.00;101213.22;4983519;28;20038;-63
2021/01/14 09:38:46;;;;;;;10.35;5.45;;;;;;;-0.46;100.00;101215.06;4987497;28;20056;-62
2021/01/14 09:41:18;;;;;;;;;;;;;;;-0.44;100.00;101215.00;4989122;28;20057;-60
2021/01/14 09:43:48;;;;;;;9.52;4.13;;;;;;;-0.44;100.00;101210.59;4984070;28;19929;-57
2021/01/14 09:46:15;;;;;;;10.15;4.85;;;;;;;-0.40;100.00;101212.13;4987748;28;20312;-55
2021/01/14 09:48:42;;;;;;;8.75;4.97;;;;;;;-0.39;100.00;101223.47;4982693;28;20069;-51
2021/01/14 09:51:11;;;;;;;9.48;5.30;;;;;;;-0.34;100.00;101216.22;4986638;28;20049;-51
2021/01/14 09:53:45;;;;;;;8.85;4.25;;;;;;;-0.32;100.00;101218.75;4986377;28;20514;-57
2021/01/14 09:56:17;;;;;;;9.43;3.92;;;;;;;-0.36;100.00;101213.63;4980060;28;20065;-57
2021/01/14 09:58:46;;;;;;;6.57;3.33;;;;;;;-0.37;100.00;101211.09;4979301;28;20383;-57
2021/01/14 10:01:15;;;;;;;8.05;3.85;;;;;;;-0.37;100.00;101205.84;4988076;28;20050;-55
2021/01/14 10:03:47;;;;;;;8.65;4.03;;;;;;;-0.33;100.00;101206.56;4984851;28;20050;-55
2021/01/14 10:06:16;;;;;;;8.73;3.72;;;;;;;-0.31;100.00;101212.53;4981834;28;20077;-55
2021/01/14 10:08:46;;;;;;;6.70;3.85;;;;;;;-0.31;100.00;101204.69;4989294;28;20393;-55
2021/01/14 10:11:13;;;;;;;11.27;3.83;;;;;;;-0.32;100.00;101203.00;4986168;28;20043;-51
2021/01/14 10:13:51;;;;;;;7.40;4.10;;;;;;;-0.33;100.00;101198.69;4987851;28;20038;-55
2021/01/14 10:16:22;;;;;;;6.80;3.83;;;;;;;-0.33;100.00;101201.31;4984093;28;20042;-53
2021/01/14 10:18:50;;;;;;;9.15;4.07;;;;;;;-0.32;100.00;101193.34;4988322;28;20046;-54
2021/01/14 10:21:25;;;;;;;5.80;3.65;;;;;;;-0.29;100.00;101192.34;4988758;28;20034;-54
2021/01/14 10:23:52;;;;;;;;;;;;;;;-0.28;100.00;101187.00;4987666;28;20088;-56
2021/01/14 10:26:27;;;;;;;8.15;4.82;;;;;;;-0.29;100.00;101182.66;4982451;28;19922;-54
2021/01/14 10:28:55;;;;;;;6.60;4.28;;;;;;;-0.18;100.00;101179.47;4984547;28;20441;-55
2021/01/14 10:31:32;;;;;;;8.32;2.88;;;;;;;-0.22;100.00;101167.44;4990850;28;20042;-51
2021/01/14 10:33:59;;;;;;;6.32;3.03;;;;;;;-0.10;100.00;101172.00;4989244;28;20066;-50
2021/01/14 10:36:45;;;;;;;8.95;4.00;;;;;;;0.04;100.00;101168.59;4981443;28;20035;-51
2021/01/14 10:39:12;;;;;;;8.82;3.85;;;;;;;0.20;100.00;101159.84;4981579;28;20050;-51
2021/01/14 10:41:40;;;;;;;5.28;3.20;;;;;;;0.11;100.00;101151.56;4987319;28;20047;-54
2021/01/14 10:44:09;;;;;;;7.45;3.35;;;;;;;0.30;100.00;101164.50;4984941;28;20209;-55
2021/01/14 10:46:36;;;;;;;8.32;3.38;;;;;;;0.25;100.00;101155.19;4981456;28;20419;-56
2021/01/14 10:49:10;;;;;;;7.65;3.65;;;;;;;0.23;100.00;101150.03;4985210;28;20218;-57
2021/01/14 10:51:39;;;;;;;4.75;2.22;;;;;;;0.27;100.00;101137.53;4985563;28;20541;-56
2021/01/14 10:54:08;;;;;;;5.88;3.05;;;;;;;0.27;100.00;101130.53;4982093;28;20034;-56
2021/01/14 10:56:52;;;;;;;5.45;2.83;;;;;;;0.28;100.00;101133.97;4980907;28;20038;-58
2021/01/14 10:59:24;;;;;;;3.92;2.55;;;;;;;0.24;100.00;101127.22;4979702;28;20049;-59
2021/01/14 11:02:04;;;;;;;9.75;4.10;;;;;;;0.29;100.00;101128.63;4984307;28;20069;-56
2021/01/14 11:04:32;;;;;;;7.07;2.92;;;;;;;0.33;100.00;101132.78;4986375;28;20346;-60
2021/01/14 11:06:59;;;;;;;4.38;2.40;;;;;;;0.25;100.00;101127.13;4986869;28;20042;-58
2021/01/14 11:09:26;;;;;;;5.70;3.38;;;;;;;0.33;100.00;101116.19;4988117;28;20082;-57
2021/01/14 11:11:53;;;;;;;5.53;2.55;;;;;;;0.25;100.00;101111.34;4989725;28;20053;-55
2021/01/14 11:14:20;;;;;;;3.65;2.35;;;;;;;0.27;100.00;101117.38;4991095;28;20041;-57
2021/01/14 11:16:47;;;;;;;5.72;2.30;;;;;;;0.24;100.00;101112.31;4987562;28;20053;-58
2021/01/14 11:19:14;;;;;;;5.93;2.75;;;;;;;0.27;100.00;101106.88;4989381;28;20307;-58
2021/01/14 11:21:42;;;;;;;8.15;3.58;;;;;;;0.23;100.00;101105.38;4989223;28;20372;-59
2021/01/14 11:24:09;;;;;;;8.98;4.03;;;;;;;0.22;100.00;101100.19;4987667;28;20145;-59
2021/01/14 11:26:36;;;;;;;8.65;3.30;;;;;;;0.12;100.00;101107.75;4986271;28;20375;-59
2021/01/14 11:29:03;;;;;;;3.70;2.75;;;;;;;0.08;100.00;101101.00;4996281;28;20365;-53